sensor_id;sensor_type;location;lat;lon;timestamp;pressure;altitude;pressure_sealevel;temperature;humidity
9831;BME280;4954;48.476;8.168;2024-02-26T00:01:20;96458.38;;;8.11;nan
9831;BME280;4954;48.476;8.168;2024-02-26T00:03:47;96463.50;;;8.08;nan
9831;BME280;4954;48.476;8.168;2024-02-26T00:06:14;96464.38;;;8.04;nan
9831;BME280;4954;48.476;8.168;2024-02-26T00:08:41;96458.47;;;8.04;nan
9831;BME280;4954;48.476;8.168;2024-02-26T00:11:08;96454.31;;;7.98;nan
9831;BME280;4954;48.476;8.168;2024-02-26T00:13:36;96477.16;;;7.92;nan
9831;BME280;4954;48.476;8.168;2024-02-26T00:16:04;96473.81;;;7.93;nan
9831;BME280;4954;48.476;8.168;2024-02-26T00:18:31;96482.19;;;7.95;nan
9831;BME280;4954;48.476;8.168;2024-02-26T00:20:58;96474.69;;;7.89;nan
9831;BME280;4954;48.476;8.168;2024-02-26T00:23:25;96497.47;;;7.88;nan
9831;BME280;4954;48.476;8.168;2024-02-26T00:25:53;96493.28;;;7.88;nan
9831;BME280;4954;48.476;8.168;2024-02-26T00:28:20;96490.69;;;7.90;nan
9831;BME280;4954;48.476;8.168;2024-02-26T00:30:49;96498.25;;;7.94;nan
9831;BME280;4954;48.476;8.168;2024-02-26T00:33:17;96501.59;;;7.96;nan
9831;BME280;4954;48.476;8.168;2024-02-26T00:35:43;96514.97;;;8.07;nan
9831;BME280;4954;48.476;8.168;2024-02-26T00:38:10;96523.44;;;8.06;nan
9831;BME280;4954;48.476;8.168;2024-02-26T00:40:37;96526.91;;;7.99;nan
9831;BME280;4954;48.476;8.168;2024-02-26T00:43:04;96523.41;;;8.09;nan
9831;BME280;4954;48.476;8.168;2024-02-26T00:45:31;96524.22;;;8.11;nan
9831;BME280;4954;48.476;8.168;2024-02-26T00:48:00;96522.53;;;8.13;nan
9831;BME280;4954;48.476;8.168;2024-02-26T00:50:30;96524.22;;;8.11;nan
9831;BME280;4954;48.476;8.168;2024-02-26T00:52:57;96526.03;;;8.03;nan
9831;BME280;4954;48.476;8.168;2024-02-26T00:55:24;96519.38;;;7.92;nan
9831;BME280;4954;48.476;8.168;2024-02-26T00:57:51;96522.81;;;7.86;nan
9831;BME280;4954;48.476;8.168;2024-02-26T01:00:18;96531.28;;;7.82;nan
9831;BME280;4954;48.476;8.168;2024-02-26T01:02:46;96526.31;;;7.75;nan
9831;BME280;4954;48.476;8.168;2024-02-26T01:05:14;96528.13;;;7.61;nan
9831;BME280;4954;48.476;8.168;2024-02-26T01:07:42;96539.19;;;7.51;nan
9831;BME280;4954;48.476;8.168;2024-02-26T01:10:09;96554.41;;;7.46;nan
9831;BME280;4954;48.476;8.168;2024-02-26T01:12:36;96548.56;;;7.38;nan
9831;BME280;4954;48.476;8.168;2024-02-26T01:15:04;96546.09;;;7.31;nan
9831;BME280;4954;48.476;8.168;2024-02-26T01:17:31;96542.00;;;7.19;nan
9831;BME280;4954;48.476;8.168;2024-02-26T01:19:58;96537.88;;;7.06;nan
9831;BME280;4954;48.476;8.168;2024-02-26T01:22:26;96538.78;;;6.98;nan
9831;BME280;4954;48.476;8.168;2024-02-26T01:24:53;96532.13;;;6.88;nan
9831;BME280;4954;48.476;8.168;2024-02-26T01:27:22;96538.06;;;6.82;nan
9831;BME280;4954;48.476;8.168;2024-02-26T01:29:52;96541.47;;;6.75;nan
9831;BME280;4954;48.476;8.168;2024-02-26T01:32:18;96527.19;;;6.67;nan
9831;BME280;4954;48.476;8.168;2024-02-26T01:34:46;96528.94;;;6.59;nan
9831;BME280;4954;48.476;8.168;2024-02-26T01:37:13;96520.53;;;6.55;nan
9831;BME280;4954;48.476;8.168;2024-02-26T01:39:41;96526.44;;;6.48;nan
9831;BME280;4954;48.476;8.168;2024-02-26T01:42:08;96522.28;;;6.41;nan
9831;BME280;4954;48.476;8.168;2024-02-26T01:44:35;96518.91;;;6.38;nan
9831;BME280;4954;48.476;8.168;2024-02-26T01:47:04;96514.72;;;6.35;nan
9831;BME280;4954;48.476;8.168;2024-02-26T01:49:34;96513.88;;;6.39;nan
9831;BME280;4954;48.476;8.168;2024-02-26T01:52:03;96508.84;;;6.35;nan
9831;BME280;4954;48.476;8.168;2024-02-26T01:54:31;96515.56;;;6.37;nan
9831;BME280;4954;48.476;8.168;2024-02-26T01:57:03;96497.88;;;6.37;nan
9831;BME280;4954;48.476;8.168;2024-02-26T01:59:32;96508.03;;;6.31;nan
9831;BME280;4954;48.476;8.168;2024-02-26T02:02:03;96508.03;;;6.25;nan
9831;BME280;4954;48.476;8.168;2024-02-26T02:04:34;96506.38;;;6.24;nan
9831;BME280;4954;48.476;8.168;2024-02-26T02:07:03;96493.72;;;6.27;nan
9831;BME280;4954;48.476;8.168;2024-02-26T02:09:31;96490.34;;;6.27;nan
9831;BME280;4954;48.476;8.168;2024-02-26T02:12:01;96489.50;;;6.28;nan
9831;BME280;4954;48.476;8.168;2024-02-26T02:14:29;96490.34;;;6.31;nan
9831;BME280;4954;48.476;8.168;2024-02-26T02:16:56;96486.97;;;6.34;nan
9831;BME280;4954;48.476;8.168;2024-02-26T02:19:23;96476.88;;;6.34;nan
9831;BME280;4954;48.476;8.168;2024-02-26T02:21:51;96478.59;;;6.27;nan
9831;BME280;4954;48.476;8.168;2024-02-26T02:24:18;96478.59;;;6.26;nan
9831;BME280;4954;48.476;8.168;2024-02-26T02:26:45;96462.59;;;6.25;nan
9831;BME280;4954;48.476;8.168;2024-02-26T02:29:12;96465.97;;;6.24;nan
9831;BME280;4954;48.476;8.168;2024-02-26T02:31:41;96470.16;;;6.27;nan
9831;BME280;4954;48.476;8.168;2024-02-26T02:34:09;96463.38;;;6.30;nan
9831;BME280;4954;48.476;8.168;2024-02-26T02:36:48;96469.28;;;6.29;nan
9831;BME280;4954;48.476;8.168;2024-02-26T02:39:18;96455.00;;;6.28;nan
9831;BME280;4954;48.476;8.168;2024-02-26T02:41:45;96461.72;;;6.31;nan
9831;BME280;4954;48.476;8.168;2024-02-26T02:44:12;96463.44;;;6.26;nan
9831;BME280;4954;48.476;8.168;2024-02-26T02:46:39;96459.22;;;6.26;nan
9831;BME280;4954;48.476;8.168;2024-02-26T02:49:08;96467.63;;;6.28;nan
9831;BME280;4954;48.476;8.168;2024-02-26T02:51:36;96462.56;;;6.30;nan
9831;BME280;4954;48.476;8.168;2024-02-26T02:54:04;96455.81;;;6.33;nan
9831;BME280;4954;48.476;8.168;2024-02-26T02:56:31;96452.44;;;6.34;nan
9831;BME280;4954;48.476;8.168;2024-02-26T02:58:58;96446.56;;;6.31;nan
9831;BME280;4954;48.476;8.168;2024-02-26T03:01:25;96459.19;;;6.31;nan
9831;BME280;4954;48.476;8.168;2024-02-26T03:03:52;96455.00;;;6.27;nan
9831;BME280;4954;48.476;8.168;2024-02-26T03:06:19;96454.19;;;6.26;nan
9831;BME280;4954;48.476;8.168;2024-02-26T03:08:46;96459.19;;;6.29;nan
9831;BME280;4954;48.476;8.168;2024-02-26T03:11:15;96449.94;;;6.28;nan
9831;BME280;4954;48.476;8.168;2024-02-26T03:13:42;96454.19;;;6.26;nan
9831;BME280;4954;48.476;8.168;2024-02-26T03:16:09;96447.41;;;6.30;nan
9831;BME280;4954;48.476;8.168;2024-02-26T03:18:38;96449.09;;;6.29;nan
9831;BME280;4954;48.476;8.168;2024-02-26T03:21:05;96442.38;;;6.31;nan
9831;BME280;4954;48.476;8.168;2024-02-26T03:23:32;96441.50;;;6.34;nan
9831;BME280;4954;48.476;8.168;2024-02-26T03:26:02;96455.81;;;6.33;nan
9831;BME280;4954;48.476;8.168;2024-02-26T03:28:31;96449.06;;;6.35;nan
9831;BME280;4954;48.476;8.168;2024-02-26T03:30:58;96446.50;;;6.43;nan
9831;BME280;4954;48.476;8.168;2024-02-26T03:33:25;96454.94;;;6.40;nan
9831;BME280;4954;48.476;8.168;2024-02-26T03:35:52;96465.06;;;6.39;nan
9831;BME280;4954;48.476;8.168;2024-02-26T03:38:19;96462.47;;;6.43;nan
9831;BME280;4954;48.476;8.168;2024-02-26T03:40:46;96458.28;;;6.39;nan
9831;BME280;4954;48.476;8.168;2024-02-26T03:43:13;96458.28;;;6.41;nan
9831;BME280;4954;48.476;8.168;2024-02-26T03:45:41;96453.22;;;6.42;nan
9831;BME280;4954;48.476;8.168;2024-02-26T03:48:08;96460.81;;;6.39;nan
9831;BME280;4954;48.476;8.168;2024-02-26T03:50:35;96461.66;;;6.40;nan
9831;BME280;4954;48.476;8.168;2024-02-26T03:53:02;96462.53;;;6.40;nan
9831;BME280;4954;48.476;8.168;2024-02-26T03:55:29;96463.28;;;6.47;nan
9831;BME280;4954;48.476;8.168;2024-02-26T03:57:56;96466.72;;;6.43;nan
9831;BME280;4954;48.476;8.168;2024-02-26T04:00:23;96473.44;;;6.42;nan
9831;BME280;4954;48.476;8.168;2024-02-26T04:02:52;96476.78;;;6.46;nan
9831;BME280;4954;48.476;8.168;2024-02-26T04:05:19;96466.69;;;6.46;nan
9831;BME280;4954;48.476;8.168;2024-02-26T04:07:46;96470.91;;;6.42;nan
9831;BME280;4954;48.476;8.168;2024-02-26T04:10:13;96472.63;;;6.40;nan
9831;BME280;4954;48.476;8.168;2024-02-26T04:12:41;96475.97;;;6.42;nan
9831;BME280;4954;48.476;8.168;2024-02-26T04:15:09;96483.53;;;6.44;nan
9831;BME280;4954;48.476;8.168;2024-02-26T04:17:37;96487.75;;;6.46;nan
9831;BME280;4954;48.476;8.168;2024-02-26T04:20:07;96490.22;;;6.49;nan
9831;BME280;4954;48.476;8.168;2024-02-26T04:22:39;96485.19;;;6.49;nan
9831;BME280;4954;48.476;8.168;2024-02-26T04:25:06;96491.94;;;6.50;nan
9831;BME280;4954;48.476;8.168;2024-02-26T04:27:34;96496.13;;;6.51;nan
9831;BME280;4954;48.476;8.168;2024-02-26T04:30:01;96498.66;;;6.50;nan
9831;BME280;4954;48.476;8.168;2024-02-26T04:32:29;96499.50;;;6.49;nan
9831;BME280;4954;48.476;8.168;2024-02-26T04:34:56;96507.09;;;6.49;nan
9831;BME280;4954;48.476;8.168;2024-02-26T04:37:24;96500.38;;;6.46;nan
9831;BME280;4954;48.476;8.168;2024-02-26T04:39:57;96503.72;;;6.48;nan
9831;BME280;4954;48.476;8.168;2024-02-26T04:42:24;96508.78;;;6.47;nan
9831;BME280;4954;48.476;8.168;2024-02-26T04:44:51;96513.00;;;6.45;nan
9831;BME280;4954;48.476;8.168;2024-02-26T04:47:18;96507.94;;;6.45;nan
9831;BME280;4954;48.476;8.168;2024-02-26T04:49:45;96507.94;;;6.43;nan
9831;BME280;4954;48.476;8.168;2024-02-26T04:52:11;96506.25;;;6.47;nan
9831;BME280;4954;48.476;8.168;2024-02-26T04:54:40;96499.53;;;6.46;nan
9831;BME280;4954;48.476;8.168;2024-02-26T04:57:07;96497.84;;;6.46;nan
9831;BME280;4954;48.476;8.168;2024-02-26T04:59:34;96499.53;;;6.47;nan
9831;BME280;4954;48.476;8.168;2024-02-26T05:02:00;96507.94;;;6.46;nan
9831;BME280;4954;48.476;8.168;2024-02-26T05:04:27;96507.91;;;6.49;nan
9831;BME280;4954;48.476;8.168;2024-02-26T05:06:54;96509.63;;;6.44;nan
9831;BME280;4954;48.476;8.168;2024-02-26T05:09:22;96504.56;;;6.46;nan
9831;BME280;4954;48.476;8.168;2024-02-26T05:11:50;96496.19;;;6.42;nan
9831;BME280;4954;48.476;8.168;2024-02-26T05:14:17;96490.28;;;6.45;nan
9831;BME280;4954;48.476;8.168;2024-02-26T05:16:44;96497.81;;;6.49;nan
9831;BME280;4954;48.476;8.168;2024-02-26T05:19:11;96490.25;;;6.48;nan
9831;BME280;4954;48.476;8.168;2024-02-26T05:21:38;96491.94;;;6.44;nan
9831;BME280;4954;48.476;8.168;2024-02-26T05:24:05;96488.59;;;6.44;nan
9831;BME280;4954;48.476;8.168;2024-02-26T05:26:33;96486.06;;;6.45;nan
9831;BME280;4954;48.476;8.168;2024-02-26T05:29:01;96489.41;;;6.44;nan
9831;BME280;4954;48.476;8.168;2024-02-26T05:31:28;96494.47;;;6.47;nan
9831;BME280;4954;48.476;8.168;2024-02-26T05:33:55;96497.81;;;6.49;nan
9831;BME280;4954;48.476;8.168;2024-02-26T05:36:22;96498.66;;;6.50;nan
9831;BME280;4954;48.476;8.168;2024-02-26T05:38:50;96497.00;;;6.50;nan
9831;BME280;4954;48.476;8.168;2024-02-26T05:41:18;96496.09;;;6.54;nan
9831;BME280;4954;48.476;8.168;2024-02-26T05:43:48;96502.81;;;6.57;nan
9831;BME280;4954;48.476;8.168;2024-02-26T05:46:17;96500.28;;;6.57;nan
9831;BME280;4954;48.476;8.168;2024-02-26T05:48:46;96503.66;;;6.57;nan
9831;BME280;4954;48.476;8.168;2024-02-26T05:51:13;96504.47;;;6.59;nan
9831;BME280;4954;48.476;8.168;2024-02-26T05:53:41;96506.19;;;6.57;nan
9831;BME280;4954;48.476;8.168;2024-02-26T05:56:08;96504.53;;;6.56;nan
9831;BME280;4954;48.476;8.168;2024-02-26T05:58:35;96507.88;;;6.58;nan
9831;BME280;4954;48.476;8.168;2024-02-26T06:01:02;96512.09;;;6.55;nan
9831;BME280;4954;48.476;8.168;2024-02-26T06:03:30;96514.59;;;6.59;nan
9831;BME280;4954;48.476;8.168;2024-02-26T06:05:57;96506.19;;;6.54;nan
9831;BME280;4954;48.476;8.168;2024-02-26T06:08:24;96516.31;;;6.56;nan
9831;BME280;4954;48.476;8.168;2024-02-26T06:10:51;96510.44;;;6.55;nan
9831;BME280;4954;48.476;8.168;2024-02-26T06:13:18;96519.69;;;6.58;nan
9831;BME280;4954;48.476;8.168;2024-02-26T06:15:46;96507.00;;;6.64;nan
9831;BME280;4954;48.476;8.168;2024-02-26T06:18:13;96530.59;;;6.63;nan
9831;BME280;4954;48.476;8.168;2024-02-26T06:20:41;96526.41;;;6.60;nan
9831;BME280;4954;48.476;8.168;2024-02-26T06:23:08;96536.50;;;6.60;nan
9831;BME280;4954;48.476;8.168;2024-02-26T06:25:35;96535.66;;;6.63;nan
9831;BME280;4954;48.476;8.168;2024-02-26T06:28:02;96528.06;;;6.61;nan
9831;BME280;4954;48.476;8.168;2024-02-26T06:30:30;96533.13;;;6.63;nan
9831;BME280;4954;48.476;8.168;2024-02-26T06:32:57;96537.31;;;6.64;nan
9831;BME280;4954;48.476;8.168;2024-02-26T06:35:23;96538.19;;;6.61;nan
9831;BME280;4954;48.476;8.168;2024-02-26T06:37:52;96538.19;;;6.61;nan
9831;BME280;4954;48.476;8.168;2024-02-26T06:40:25;96543.25;;;6.61;nan
9831;BME280;4954;48.476;8.168;2024-02-26T06:43:08;96554.97;;;6.67;nan
9831;BME280;4954;48.476;8.168;2024-02-26T06:45:40;96552.44;;;6.67;nan
9831;BME280;4954;48.476;8.168;2024-02-26T06:48:07;96552.44;;;6.68;nan
9831;BME280;4954;48.476;8.168;2024-02-26T06:50:34;96554.13;;;6.71;nan
9831;BME280;4954;48.476;8.168;2024-02-26T06:53:03;96558.34;;;6.67;nan
9831;BME280;4954;48.476;8.168;2024-02-26T06:55:31;96560.88;;;6.69;nan
9831;BME280;4954;48.476;8.168;2024-02-26T06:57:58;96570.13;;;6.68;nan
9831;BME280;4954;48.476;8.168;2024-02-26T07:00:25;96565.09;;;6.68;nan
9831;BME280;4954;48.476;8.168;2024-02-26T07:02:52;96560.03;;;6.68;nan
9831;BME280;4954;48.476;8.168;2024-02-26T07:05:19;96561.69;;;6.72;nan
9831;BME280;4954;48.476;8.168;2024-02-26T07:07:46;96560.00;;;6.74;nan
9831;BME280;4954;48.476;8.168;2024-02-26T07:10:14;96560.84;;;6.73;nan
9831;BME280;4954;48.476;8.168;2024-02-26T07:12:41;96569.25;;;6.77;nan
9831;BME280;4954;48.476;8.168;2024-02-26T07:15:09;96559.13;;;6.81;nan
9831;BME280;4954;48.476;8.168;2024-02-26T07:17:36;96554.88;;;6.86;nan
9831;BME280;4954;48.476;8.168;2024-02-26T07:20:07;96561.59;;;6.90;nan
9831;BME280;4954;48.476;8.168;2024-02-26T07:22:35;96561.56;;;6.95;nan
9831;BME280;4954;48.476;8.168;2024-02-26T07:25:03;96558.16;;;6.97;nan
9831;BME280;4954;48.476;8.168;2024-02-26T07:27:35;96555.59;;;7.03;nan
9831;BME280;4954;48.476;8.168;2024-02-26T07:30:02;96553.91;;;7.02;nan
9831;BME280;4954;48.476;8.168;2024-02-26T07:32:30;96549.72;;;7.04;nan
9831;BME280;4954;48.476;8.168;2024-02-26T07:34:56;96553.91;;;7.05;nan
9831;BME280;4954;48.476;8.168;2024-02-26T07:37:23;96566.50;;;7.08;nan
9831;BME280;4954;48.476;8.168;2024-02-26T07:39:50;96560.59;;;7.12;nan
9831;BME280;4954;48.476;8.168;2024-02-26T07:42:17;96551.28;;;7.17;nan
9831;BME280;4954;48.476;8.168;2024-02-26T07:44:45;96568.13;;;7.23;nan
9831;BME280;4954;48.476;8.168;2024-02-26T07:47:12;96568.94;;;7.26;nan
9831;BME280;4954;48.476;8.168;2024-02-26T07:49:39;96570.53;;;7.35;nan
9831;BME280;4954;48.476;8.168;2024-02-26T07:52:06;96579.72;;;7.48;nan
9831;BME280;4954;48.476;8.168;2024-02-26T07:54:33;96588.91;;;7.59;nan
9831;BME280;4954;48.476;8.168;2024-02-26T07:57:01;96588.84;;;7.65;nan
9831;BME280;4954;48.476;8.168;2024-02-26T07:59:30;96592.13;;;7.76;nan
9831;BME280;4954;48.476;8.168;2024-02-26T08:01:58;96599.56;;;7.90;nan
9831;BME280;4954;48.476;8.168;2024-02-26T08:04:28;96588.34;;;8.16;nan
9831;BME280;4954;48.476;8.168;2024-02-26T08:06:55;96577.25;;;8.29;nan
9831;BME280;4954;48.476;8.168;2024-02-26T08:09:22;96575.50;;;8.33;nan
9831;BME280;4954;48.476;8.168;2024-02-26T08:11:49;96585.56;;;8.40;nan
9831;BME280;4954;48.476;8.168;2024-02-26T08:14:16;96572.81;;;8.48;nan
9831;BME280;4954;48.476;8.168;2024-02-26T08:16:42;96575.19;;;8.60;nan
9831;BME280;4954;48.476;8.168;2024-02-26T08:19:11;96576.56;;;8.83;nan
9831;BME280;4954;48.476;8.168;2024-02-26T08:21:40;96566.00;;;9.13;nan
9831;BME280;4954;48.476;8.168;2024-02-26T08:24:07;96558.72;;;9.45;nan
9831;BME280;4954;48.476;8.168;2024-02-26T08:26:34;96564.19;;;9.73;nan
9831;BME280;4954;48.476;8.168;2024-02-26T08:29:01;96578.94;;;9.51;nan
9831;BME280;4954;48.476;8.168;2024-02-26T08:31:28;96590.50;;;9.13;nan
9831;BME280;4954;48.476;8.168;2024-02-26T08:33:55;96596.34;;;9.72;nan
9831;BME280;4954;48.476;8.168;2024-02-26T08:36:24;96582.13;;;11.34;nan
9831;BME280;4954;48.476;8.168;2024-02-26T08:38:51;96580.34;;;12.07;nan
9831;BME280;4954;48.476;8.168;2024-02-26T08:41:18;96579.72;;;11.98;nan
9831;BME280;4954;48.476;8.168;2024-02-26T08:43:45;96577.34;;;11.90;nan
9831;BME280;4954;48.476;8.168;2024-02-26T08:46:12;96581.16;;;11.74;nan
9831;BME280;4954;48.476;8.168;2024-02-26T08:48:39;96582.56;;;11.51;nan
9831;BME280;4954;48.476;8.168;2024-02-26T08:51:07;96590.75;;;11.28;nan
9831;BME280;4954;48.476;8.168;2024-02-26T08:53:35;96590.63;;;10.95;nan
9831;BME280;4954;48.476;8.168;2024-02-26T08:56:03;96603.22;;;10.61;nan
9831;BME280;4954;48.476;8.168;2024-02-26T08:58:31;96597.56;;;10.47;nan
9831;BME280;4954;48.476;8.168;2024-02-26T09:00:58;96592.09;;;10.24;nan
9831;BME280;4954;48.476;8.168;2024-02-26T09:03:25;96594.81;;;10.14;nan
9831;BME280;4954;48.476;8.168;2024-02-26T09:05:52;96589.59;;;10.21;nan
9831;BME280;4954;48.476;8.168;2024-02-26T09:08:18;96593.75;;;10.25;nan
9831;BME280;4954;48.476;8.168;2024-02-26T09:10:49;96601.22;;;10.34;nan
9831;BME280;4954;48.476;8.168;2024-02-26T09:13:16;96602.13;;;10.32;nan
9831;BME280;4954;48.476;8.168;2024-02-26T09:15:44;96603.25;;;10.58;nan
9831;BME280;4954;48.476;8.168;2024-02-26T09:18:11;96591.09;;;10.72;nan
9831;BME280;4954;48.476;8.168;2024-02-26T09:20:38;96602.22;;;10.68;nan
9831;BME280;4954;48.476;8.168;2024-02-26T09:23:05;96601.38;;;10.68;nan
9831;BME280;4954;48.476;8.168;2024-02-26T09:25:32;96592.28;;;10.97;nan
9831;BME280;4954;48.476;8.168;2024-02-26T09:28:01;96593.38;;;11.24;nan
9831;BME280;4954;48.476;8.168;2024-02-26T09:30:28;96591.84;;;11.53;nan
9831;BME280;4954;48.476;8.168;2024-02-26T09:32:55;96591.97;;;11.47;nan
9831;BME280;4954;48.476;8.168;2024-02-26T09:35:22;96587.69;;;11.49;nan
9831;BME280;4954;48.476;8.168;2024-02-26T09:37:49;96591.69;;;11.62;nan
9831;BME280;4954;48.476;8.168;2024-02-26T09:40:16;96589.13;;;11.62;nan
9831;BME280;4954;48.476;8.168;2024-02-26T09:42:44;96589.41;;;11.49;nan
9831;BME280;4954;48.476;8.168;2024-02-26T09:45:18;96597.97;;;11.81;nan
9831;BME280;4954;48.476;8.168;2024-02-26T09:47:48;96597.69;;;12.25;nan
9831;BME280;4954;48.476;8.168;2024-02-26T09:50:17;96593.97;;;12.67;nan
9831;BME280;4954;48.476;8.168;2024-02-26T09:52:48;96600.13;;;13.47;nan
9831;BME280;4954;48.476;8.168;2024-02-26T09:55:15;96611.59;;;13.88;nan
9831;BME280;4954;48.476;8.168;2024-02-26T09:57:45;96613.91;;;13.95;nan
9831;BME280;4954;48.476;8.168;2024-02-26T10:00:18;96625.13;;;15.12;nan
9831;BME280;4954;48.476;8.168;2024-02-26T10:02:47;96618.97;;;15.16;nan
9831;BME280;4954;48.476;8.168;2024-02-26T10:05:16;96618.69;;;15.24;nan
9831;BME280;4954;48.476;8.168;2024-02-26T10:07:44;96615.59;;;15.60;nan
9831;BME280;4954;48.476;8.168;2024-02-26T10:10:12;96616.19;;;15.67;nan
9831;BME280;4954;48.476;8.168;2024-02-26T10:12:40;96619.19;;;15.98;nan
9831;BME280;4954;48.476;8.168;2024-02-26T10:15:08;96630.84;;;16.86;nan
9831;BME280;4954;48.476;8.168;2024-02-26T10:17:37;96614.78;;;17.92;nan
9831;BME280;4954;48.476;8.168;2024-02-26T10:20:13;96615.09;;;18.87;nan
9831;BME280;4954;48.476;8.168;2024-02-26T10:22:43;96618.22;;;19.72;nan
9831;BME280;4954;48.476;8.168;2024-02-26T10:25:10;96620.28;;;19.81;nan
9831;BME280;4954;48.476;8.168;2024-02-26T10:27:37;96617.00;;;20.24;nan
9831;BME280;4954;48.476;8.168;2024-02-26T10:30:05;96610.41;;;19.27;nan
9831;BME280;4954;48.476;8.168;2024-02-26T10:32:44;96611.41;;;18.92;nan
9831;BME280;4954;48.476;8.168;2024-02-26T10:35:13;96613.75;;;20.05;nan
9831;BME280;4954;48.476;8.168;2024-02-26T10:37:40;96612.25;;;20.60;nan
9831;BME280;4954;48.476;8.168;2024-02-26T10:40:10;96608.38;;;19.63;nan
9831;BME280;4954;48.476;8.168;2024-02-26T10:42:37;96614.25;;;17.67;nan
9831;BME280;4954;48.476;8.168;2024-02-26T10:45:05;96627.41;;;16.67;nan
9831;BME280;4954;48.476;8.168;2024-02-26T10:47:34;96621.72;;;15.99;nan
9831;BME280;4954;48.476;8.168;2024-02-26T10:50:04;96631.13;;;15.57;nan
9831;BME280;4954;48.476;8.168;2024-02-26T10:52:33;96628.06;;;15.48;nan
9831;BME280;4954;48.476;8.168;2024-02-26T10:55:03;96636.06;;;15.62;nan
9831;BME280;4954;48.476;8.168;2024-02-26T10:57:33;96643.94;;;15.79;nan
9831;BME280;4954;48.476;8.168;2024-02-26T11:00:05;96634.63;;;15.33;nan
9831;BME280;4954;48.476;8.168;2024-02-26T11:02:36;96633.59;;;15.14;nan
9831;BME280;4954;48.476;8.168;2024-02-26T11:05:06;96636.44;;;15.07;nan
9831;BME280;4954;48.476;8.168;2024-02-26T11:07:34;96636.16;;;14.91;nan
9831;BME280;4954;48.476;8.168;2024-02-26T11:10:04;96629.06;;;14.52;nan
9831;BME280;4954;48.476;8.168;2024-02-26T11:12:35;96639.56;;;14.44;nan
9831;BME280;4954;48.476;8.168;2024-02-26T11:15:04;96645.66;;;14.14;nan
9831;BME280;4954;48.476;8.168;2024-02-26T11:17:32;96636.50;;;14.07;nan
9831;BME280;4954;48.476;8.168;2024-02-26T11:20:00;96642.31;;;14.38;nan
9831;BME280;4954;48.476;8.168;2024-02-26T11:22:29;96649.34;;;14.81;nan
9831;BME280;4954;48.476;8.168;2024-02-26T11:24:57;96648.75;;;14.97;nan
9831;BME280;4954;48.476;8.168;2024-02-26T11:27:30;96645.72;;;14.86;nan
9831;BME280;4954;48.476;8.168;2024-02-26T11:30:14;96655.28;;;14.58;nan
9831;BME280;4954;48.476;8.168;2024-02-26T11:32:44;96646.84;;;14.30;nan
9831;BME280;4954;48.476;8.168;2024-02-26T11:35:12;96652.81;;;14.31;nan
9831;BME280;4954;48.476;8.168;2024-02-26T11:37:53;96657.00;;;14.33;nan
9831;BME280;4954;48.476;8.168;2024-02-26T11:40:22;96656.50;;;14.22;nan
9831;BME280;4954;48.476;8.168;2024-02-26T11:42:53;96655.78;;;14.17;nan
9831;BME280;4954;48.476;8.168;2024-02-26T11:45:49;96650.81;;;14.13;nan
9831;BME280;4954;48.476;8.168;2024-02-26T11:48:23;96654.22;;;14.13;nan
9831;BME280;4954;48.476;8.168;2024-02-26T11:50:52;96652.34;;;14.18;nan
9831;BME280;4954;48.476;8.168;2024-02-26T11:53:23;96650.19;;;14.32;nan
9831;BME280;4954;48.476;8.168;2024-02-26T11:59:00;96648.03;;;14.45;nan
9831;BME280;4954;48.476;8.168;2024-02-26T12:01:43;96641.69;;;14.56;nan
9831;BME280;4954;48.476;8.168;2024-02-26T12:04:15;96637.38;;;14.81;nan
9831;BME280;4954;48.476;8.168;2024-02-26T12:06:47;96636.53;;;15.04;nan
9831;BME280;4954;48.476;8.168;2024-02-26T12:09:38;96623.25;;;15.17;nan
9831;BME280;4954;48.476;8.168;2024-02-26T12:12:07;96620.31;;;15.26;nan
9831;BME280;4954;48.476;8.168;2024-02-26T12:14:37;96619.66;;;15.44;nan
9831;BME280;4954;48.476;8.168;2024-02-26T12:17:06;96624.00;;;15.42;nan
9831;BME280;4954;48.476;8.168;2024-02-26T12:19:35;96620.66;;;15.40;nan
9831;BME280;4954;48.476;8.168;2024-02-26T12:22:03;96629.72;;;15.70;nan
9831;BME280;4954;48.476;8.168;2024-02-26T12:24:32;96639.88;;;15.95;nan
9831;BME280;4954;48.476;8.168;2024-02-26T12:27:01;96645.09;;;16.13;nan
9831;BME280;4954;48.476;8.168;2024-02-26T12:29:29;96633.47;;;16.46;nan
9831;BME280;4954;48.476;8.168;2024-02-26T12:31:56;96638.44;;;16.49;nan
9831;BME280;4954;48.476;8.168;2024-02-26T12:34:23;96637.56;;;16.70;nan
9831;BME280;4954;48.476;8.168;2024-02-26T12:36:50;96634.06;;;16.91;nan
9831;BME280;4954;48.476;8.168;2024-02-26T12:39:16;96641.19;;;17.03;nan
9831;BME280;4954;48.476;8.168;2024-02-26T12:41:45;96641.34;;;17.00;nan
9831;BME280;4954;48.476;8.168;2024-02-26T12:44:16;96641.44;;;17.17;nan
9831;BME280;4954;48.476;8.168;2024-02-26T12:46:43;96637.50;;;17.47;nan
9831;BME280;4954;48.476;8.168;2024-02-26T12:49:14;96644.16;;;17.51;nan
9831;BME280;4954;48.476;8.168;2024-02-26T12:51:43;96646.66;;;17.71;nan
9831;BME280;4954;48.476;8.168;2024-02-26T12:54:11;96639.25;;;17.82;nan
9831;BME280;4954;48.476;8.168;2024-02-26T12:56:40;96640.88;;;17.66;nan
9831;BME280;4954;48.476;8.168;2024-02-26T12:59:08;96639.72;;;17.90;nan
9831;BME280;4954;48.476;8.168;2024-02-26T13:01:37;96644.06;;;18.07;nan
9831;BME280;4954;48.476;8.168;2024-02-26T13:04:05;96653.69;;;18.03;nan
9831;BME280;4954;48.476;8.168;2024-02-26T13:06:33;96650.06;;;18.07;nan
9831;BME280;4954;48.476;8.168;2024-02-26T13:09:01;96652.47;;;17.93;nan
9831;BME280;4954;48.476;8.168;2024-02-26T13:11:29;96650.63;;;17.78;nan
9831;BME280;4954;48.476;8.168;2024-02-26T13:13:58;96650.81;;;17.74;nan
9831;BME280;4954;48.476;8.168;2024-02-26T13:16:25;96657.78;;;17.72;nan
9831;BME280;4954;48.476;8.168;2024-02-26T13:18:54;96659.50;;;17.34;nan
9831;BME280;4954;48.476;8.168;2024-02-26T13:21:23;96664.09;;;17.09;nan
9831;BME280;4954;48.476;8.168;2024-02-26T13:23:52;96657.22;;;17.28;nan
9831;BME280;4954;48.476;8.168;2024-02-26T13:26:22;96648.44;;;16.95;nan
9831;BME280;4954;48.476;8.168;2024-02-26T13:29:00;96657.94;;;16.93;nan
9831;BME280;4954;48.476;8.168;2024-02-26T13:31:28;96653.63;;;16.55;nan
9831;BME280;4954;48.476;8.168;2024-02-26T13:33:57;96650.78;;;16.61;nan
9831;BME280;4954;48.476;8.168;2024-02-26T13:36:26;96656.28;;;16.72;nan
9831;BME280;4954;48.476;8.168;2024-02-26T13:38:54;96648.72;;;16.89;nan
9831;BME280;4954;48.476;8.168;2024-02-26T13:41:21;96656.97;;;16.96;nan
9831;BME280;4954;48.476;8.168;2024-02-26T13:43:49;96649.34;;;16.54;nan
9831;BME280;4954;48.476;8.168;2024-02-26T13:46:17;96646.72;;;16.56;nan
9831;BME280;4954;48.476;8.168;2024-02-26T13:48:44;96656.19;;;16.55;nan
9831;BME280;4954;48.476;8.168;2024-02-26T13:51:12;96647.56;;;16.76;nan
9831;BME280;4954;48.476;8.168;2024-02-26T13:53:40;96659.31;;;16.62;nan
9831;BME280;4954;48.476;8.168;2024-02-26T13:56:07;96657.91;;;16.55;nan
9831;BME280;4954;48.476;8.168;2024-02-26T13:58:34;96652.97;;;16.50;nan
9831;BME280;4954;48.476;8.168;2024-02-26T14:01:01;96657.16;;;16.53;nan